createdAt,value
2022-08-11T00:01:10.519Z,29.04
2022-08-11T00:03:43.507Z,29.16
2022-08-11T00:06:16.840Z,28.91
2022-08-11T00:08:46.528Z,28.88
2022-08-11T00:11:17.241Z,28.65
2022-08-11T00:13:48.086Z,28.72
2022-08-11T00:16:17.636Z,29.20
2022-08-11T00:18:48.395Z,29.20
2022-08-11T00:21:20.826Z,29.13
2022-08-11T00:24:10.665Z,29.31
2022-08-11T00:26:40.106Z,29.66
2022-08-11T00:29:12.703Z,29.98
2022-08-11T00:31:42.359Z,29.94
2022-08-11T00:34:13.743Z,29.92
2022-08-11T00:36:47.860Z,30.13
2022-08-11T00:39:17.423Z,29.80
2022-08-11T00:41:48.352Z,29.45
2022-08-11T00:44:41.173Z,30.10
2022-08-11T00:47:24.948Z,30.11
2022-08-11T00:50:07.824Z,30.38
2022-08-11T00:53:02.024Z,30.37
2022-08-11T00:55:59.273Z,30.69
2022-08-11T00:58:53.478Z,31.12
2022-08-11T01:01:31.624Z,32.07
2022-08-11T01:04:33.842Z,32.49
2022-08-11T01:08:01.806Z,32.97
2022-08-11T01:10:41.117Z,32.93
2022-08-11T01:13:12.497Z,32.66
2022-08-11T01:16:14.649Z,32.33
2022-08-11T01:19:15.373Z,32.50
2022-08-11T01:22:17.536Z,32.97
2022-08-11T01:25:25.806Z,32.93
2022-08-11T01:28:25.366Z,33.80
2022-08-11T01:31:29.332Z,35.35
2022-08-11T01:34:21.226Z,34.41
2022-08-11T01:37:01.922Z,33.97
2022-08-11T01:39:50.689Z,33.58
2022-08-11T01:42:57.056Z,33.60
2022-08-11T01:45:32.043Z,33.65
2022-08-11T01:48:06.608Z,33.44
2022-08-11T01:50:42.929Z,34.23
2022-08-11T01:53:21.127Z,34.27
2022-08-11T01:55:55.198Z,34.75
2022-08-11T01:58:43.622Z,34.48
2022-08-11T02:01:19.530Z,34.40
2022-08-11T02:03:52.541Z,34.84
2022-08-11T02:06:37.553Z,34.53
2022-08-11T02:09:12.877Z,34.00
2022-08-11T02:11:41.125Z,34.23
2022-08-11T02:14:30.698Z,34.37
2022-08-11T02:17:12.928Z,34.71
2022-08-11T02:20:00.272Z,34.70
2022-08-11T02:22:58.548Z,34.55
2022-08-11T02:25:34.178Z,34.95
2022-08-11T02:28:05.919Z,34.94
2022-08-11T02:30:37.917Z,34.26
2022-08-11T02:33:30.572Z,34.61
2022-08-11T02:36:03.953Z,35.50
2022-08-11T02:38:35.733Z,36.02
2022-08-11T02:41:32.136Z,35.93
2022-08-11T02:44:13.516Z,35.58
2022-08-11T02:46:51.174Z,35.25
2022-08-11T02:49:40.421Z,34.87
2022-08-11T02:52:11.806Z,35.11
2022-08-11T02:54:44.927Z,35.38
2022-08-11T02:57:20.748Z,36.13
2022-08-11T02:59:55.478Z,36.19
2022-08-11T03:02:38.524Z,36.78
2022-08-11T03:05:17.174Z,37.29
2022-08-11T03:07:54.167Z,36.89
2022-08-11T03:10:24.992Z,37.22
2022-08-11T03:13:15.641Z,37.51
2022-08-11T03:16:00.725Z,38.02
2022-08-11T03:18:32.405Z,38.05
2022-08-11T03:21:08.872Z,38.17
2022-08-11T03:23:40.487Z,38.34
2022-08-11T03:26:13.014Z,38.75
2022-08-11T03:28:47.454Z,38.30
2022-08-11T03:31:24.870Z,38.63
2022-08-11T03:34:07.995Z,38.99
2022-08-11T03:37:17.865Z,38.93
2022-08-11T03:39:56.279Z,39.22
2022-08-11T03:42:28.278Z,39.21
2022-08-11T03:45:19.948Z,39.23
2022-08-11T03:48:05.269Z,39.40
2022-08-11T03:51:01.098Z,39.21
2022-08-11T03:54:00.193Z,38.76
2022-08-11T03:57:11.309Z,37.95
2022-08-11T04:00:10.265Z,38.04
2022-08-11T04:03:10.585Z,38.20
2022-08-11T04:06:07.374Z,38.62
2022-08-11T04:09:03.079Z,38.16
2022-08-11T04:11:47.300Z,38.69
2022-08-11T04:15:04.765Z,38.23
2022-08-11T04:18:03.013Z,37.89
2022-08-11T04:20:48.202Z,38.84
2022-08-11T04:24:35.833Z,39.87
2022-08-11T04:26:59.159Z,39.83
2022-08-11T04:30:03.450Z,39.91
2022-08-11T04:32:39.796Z,40.37
2022-08-11T04:35:31.116Z,40.33
2022-08-11T04:38:37.720Z,40.73
2022-08-11T04:41:23.061Z,41.04
2022-08-11T04:44:31.912Z,40.29
2022-08-11T04:48:03.542Z,41.52
2022-08-11T04:50:42.519Z,40.81
2022-08-11T04:53:58.353Z,40.65
2022-08-11T04:56:40.365Z,40.49
2022-08-11T04:59:43.498Z,40.21
2022-08-11T05:02:48.733Z,40.56
2022-08-11T05:05:35.776Z,41.40
2022-08-11T05:08:37.921Z,40.91
2022-08-11T05:11:38.812Z,41.57
2022-08-11T05:14:40.108Z,42.17
2022-08-11T05:17:24.109Z,42.60
2022-08-11T05:20:06.057Z,42.41
2022-08-11T05:22:48.492Z,42.77
2022-08-11T05:26:45.171Z,42.58
2022-08-11T05:28:46.040Z,42.53
2022-08-11T05:31:29.074Z,42.51
2022-08-11T05:34:12.997Z,42.37
2022-08-11T05:36:46.385Z,42.44
2022-08-11T05:39:36.375Z,42.08
2022-08-11T05:42:29.604Z,41.69
2022-08-11T05:45:19.456Z,41.33
2022-08-11T05:48:04.093Z,41.94
2022-08-11T05:50:46.191Z,41.35
2022-08-11T05:53:29.495Z,41.32
2022-08-11T05:56:21.167Z,41.03
2022-08-11T05:58:53.118Z,40.28
2022-08-11T06:01:31.110Z,39.48
2022-08-11T06:04:17.314Z,39.42
2022-08-11T06:06:55.631Z,39.21
2022-08-11T06:09:31.579Z,38.54
2022-08-11T06:12:02.848Z,38.33
2022-08-11T06:14:32.553Z,38.04
2022-08-11T06:17:09.048Z,38.26
2022-08-11T06:19:39.308Z,37.87
2022-08-11T06:22:10.669Z,37.44
2022-08-11T06:24:41.114Z,37.06
2022-08-11T06:27:13.376Z,36.43
2022-08-11T06:29:54.762Z,36.10
2022-08-11T06:32:29.765Z,35.97
2022-08-11T06:35:06.117Z,35.16
2022-08-11T06:37:48.584Z,34.91
2022-08-11T06:40:27.416Z,34.43
2022-08-11T06:43:02.243Z,33.46
2022-08-11T06:45:35.246Z,33.59
2022-08-11T06:48:10.253Z,33.07
2022-08-11T06:50:52.207Z,33.21
2022-08-11T06:53:22.569Z,32.44
2022-08-11T06:56:04.367Z,31.79
2022-08-11T06:58:47.130Z,31.60
2022-08-11T07:01:18.460Z,31.65
2022-08-11T07:03:51.505Z,31.70
2022-08-11T07:06:50.149Z,32.18
2022-08-11T07:09:46.428Z,31.61
2022-08-11T07:12:55.723Z,31.17
2022-08-11T07:16:10.469Z,31.08
2022-08-11T07:18:41.198Z,31.07
2022-08-11T07:22:01.631Z,29.56
2022-08-11T07:24:58.704Z,29.73
2022-08-11T07:27:37.476Z,30.26
2022-08-11T07:30:10.170Z,29.48
2022-08-11T07:32:42.254Z,28.48
2022-08-11T07:35:13.765Z,29.32
2022-08-11T07:37:48.009Z,29.08
2022-08-11T07:40:18.150Z,28.15
2022-08-11T07:42:48.241Z,27.78
2022-08-11T07:45:30.219Z,27.26
2022-08-11T07:48:12.204Z,27.16
2022-08-11T07:50:56.303Z,26.19
2022-08-11T07:53:28.397Z,27.00
2022-08-11T07:55:58.182Z,26.00
2022-08-11T07:58:45.462Z,26.63
2022-08-11T08:01:35.304Z,26.63
2022-08-11T08:04:17.305Z,26.67
2022-08-11T08:06:59.282Z,25.81
2022-08-11T08:09:43.840Z,25.49
2022-08-11T08:12:25.780Z,25.28
2022-08-11T08:15:08.241Z,25.27
2022-08-11T08:18:09.905Z,25.70
2022-08-11T08:20:49.932Z,25.67
2022-08-11T08:23:33.310Z,26.18
2022-08-11T08:26:27.127Z,25.57
2022-08-11T08:29:16.619Z,25.48
2022-08-11T08:31:43.525Z,25.01
2022-08-11T08:34:12.996Z,24.91
2022-08-11T08:36:43.015Z,24.39
2022-08-11T08:39:12.591Z,24.21
2022-08-11T08:41:45.331Z,24.52
2022-08-11T08:44:37.219Z,24.57
2022-08-11T08:47:05.385Z,23.89
2022-08-11T08:49:40.376Z,23.87
2022-08-11T08:52:26.257Z,24.09
2022-08-11T08:55:05.521Z,23.48
2022-08-11T08:57:39.370Z,22.63
2022-08-11T09:00:13.914Z,22.26
2022-08-11T09:02:47.116Z,22.17
2022-08-11T09:05:17.613Z,21.97
2022-08-11T09:07:47.546Z,22.47
2022-08-11T09:10:17.355Z,22.18
2022-08-11T09:12:49.718Z,22.09
2022-08-11T09:15:19.635Z,22.87
2022-08-11T09:17:50.535Z,22.02
2022-08-11T09:20:23.923Z,21.71
2022-08-11T09:24:06.369Z,21.29
2022-08-11T09:26:12.790Z,21.80
2022-08-11T09:28:45.009Z,21.81
2022-08-11T09:31:14.889Z,21.76
2022-08-11T09:33:45.376Z,21.41
2022-08-11T09:36:27.834Z,21.30
2022-08-11T09:39:09.979Z,21.34
2022-08-11T09:42:01.550Z,20.63
2022-08-11T09:44:44.884Z,21.09
2022-08-11T09:47:15.586Z,20.35
2022-08-11T09:49:45.439Z,19.92
2022-08-11T09:52:14.938Z,19.25
2022-08-11T09:54:47.932Z,19.33
2022-08-11T09:57:30.363Z,19.28
2022-08-11T10:00:09.479Z,18.64
2022-08-11T10:02:44.442Z,17.86
2022-08-11T10:05:26.729Z,16.66
2022-08-11T10:07:56.212Z,17.38
2022-08-11T10:10:25.708Z,14.25
2022-08-11T10:12:59.840Z,14.42
2022-08-11T10:15:35.301Z,13.37
2022-08-11T10:18:19.398Z,11.92
2022-08-11T10:20:50.331Z,12.77
2022-08-11T10:23:32.312Z,11.69
2022-08-11T10:26:14.278Z,11.78
2022-08-11T10:29:09.651Z,10.99
2022-08-11T10:31:57.757Z,9.73
2022-08-11T10:34:29.442Z,9.02
2022-08-11T10:37:03.136Z,9.12
2022-08-11T10:39:32.746Z,10.40
2022-08-11T10:42:29.976Z,11.73
2022-08-11T10:45:04.382Z,13.35
2022-08-11T10:47:36.695Z,13.59
2022-08-11T10:50:19.843Z,14.35
2022-08-11T10:53:03.369Z,16.19
2022-08-11T10:55:45.360Z,17.50
2022-08-11T10:58:27.542Z,17.47
2022-08-11T11:00:59.462Z,17.26
2022-08-11T11:03:34.606Z,17.89
2022-08-11T11:06:12.646Z,17.96
2022-08-11T11:09:04.145Z,17.97
2022-08-11T11:11:50.566Z,19.13
2022-08-11T11:14:34.911Z,19.95
2022-08-11T11:17:17.721Z,19.87
2022-08-11T11:19:49.750Z,20.50
2022-08-11T11:22:31.727Z,20.11
2022-08-11T11:25:05.468Z,19.93
2022-08-11T11:27:35.653Z,19.72
2022-08-11T11:30:17.161Z,19.79
2022-08-11T11:32:49.789Z,19.47
2022-08-11T11:35:29.276Z,19.77
2022-08-11T11:38:04.908Z,19.28
2022-08-11T11:40:35.151Z,19.00
2022-08-11T11:43:05.230Z,19.67
2022-08-11T11:45:34.967Z,20.47
2022-08-11T11:48:04.800Z,19.65
2022-08-11T11:50:38.215Z,19.24
2022-08-11T11:53:08.633Z,18.91
2022-08-11T11:55:38.237Z,19.40
2022-08-11T11:58:20.253Z,20.19
2022-08-11T12:01:04.168Z,20.91
2022-08-11T12:03:33.718Z,20.83
2022-08-11T12:06:05.868Z,20.32
2022-08-11T12:08:35.696Z,19.10
2022-08-11T12:11:18.651Z,19.71
2022-08-11T12:13:50.279Z,19.36
2022-08-11T12:16:33.192Z,19.08
2022-08-11T12:19:06.467Z,18.91
2022-08-11T12:21:38.725Z,18.67
2022-08-11T12:24:20.972Z,18.06
2022-08-11T12:27:16.330Z,17.89
2022-08-11T12:29:51.577Z,17.33
2022-08-11T12:32:25.269Z,17.75
2022-08-11T12:34:57.262Z,18.18
2022-08-11T12:37:32.369Z,19.61
2022-08-11T12:40:43.427Z,19.71
2022-08-11T12:43:21.204Z,18.97
2022-08-11T12:45:51.980Z,19.99
2022-08-11T12:48:57.873Z,18.72
2022-08-11T12:52:12.225Z,18.63
2022-08-11T12:54:31.879Z,18.80
2022-08-11T12:57:15.565Z,18.20
2022-08-11T13:00:05.961Z,18.49
2022-08-11T13:02:47.963Z,18.59
2022-08-11T13:05:17.709Z,18.54
2022-08-11T13:07:47.899Z,18.07
2022-08-11T13:10:43.626Z,18.85
2022-08-11T13:13:52.705Z,20.01
2022-08-11T13:15:59.924Z,19.88
2022-08-11T13:18:29.438Z,19.78
2022-08-11T13:20:59.092Z,19.54
2022-08-11T13:23:29.659Z,19.43
2022-08-11T13:26:01.955Z,18.97
2022-08-11T13:28:31.477Z,18.20
2022-08-11T13:31:16.157Z,19.03
2022-08-11T13:33:46.465Z,18.39
2022-08-11T13:36:20.726Z,19.28
2022-08-11T13:38:50.263Z,19.81
2022-08-11T13:41:35.417Z,19.39
2022-08-11T13:44:04.880Z,18.22
2022-08-11T13:46:34.735Z,17.83
2022-08-11T13:49:04.587Z,17.54
2022-08-11T13:51:35.201Z,17.47
2022-08-11T13:54:06.326Z,17.54
2022-08-11T13:56:42.209Z,18.24
2022-08-11T13:59:11.694Z,17.56
2022-08-11T14:02:20.193Z,17.29
2022-08-11T14:04:36.176Z,17.17
2022-08-11T14:07:07.902Z,18.26
2022-08-11T14:09:39.543Z,17.29
2022-08-11T14:12:28.351Z,16.81
2022-08-11T14:15:05.816Z,16.83
2022-08-11T14:17:47.838Z,16.88
2022-08-11T14:20:38.110Z,16.69
2022-08-11T14:23:07.019Z,16.66
2022-08-11T14:25:59.697Z,17.10
2022-08-11T14:28:33.940Z,18.24
2022-08-11T14:31:05.489Z,18.69
2022-08-11T14:33:58.168Z,19.11
2022-08-11T14:36:25.800Z,18.39
2022-08-11T14:38:56.259Z,18.44
2022-08-11T14:42:10.087Z,18.36
2022-08-11T14:44:57.689Z,18.33
2022-08-11T14:47:27.180Z,18.95
2022-08-11T14:50:05.003Z,18.64
2022-08-11T14:52:42.092Z,18.09
2022-08-11T14:55:24.608Z,18.54
2022-08-11T14:57:56.557Z,17.66
2022-08-11T15:00:29.074Z,18.14
2022-08-11T15:03:11.187Z,18.23
2022-08-11T15:05:52.375Z,18.45
2022-08-11T15:08:48.787Z,18.75
2022-08-11T15:11:32.089Z,18.82
2022-08-11T15:14:02.345Z,18.78
2022-08-11T15:16:46.902Z,18.47
2022-08-11T15:19:16.407Z,18.51
2022-08-11T15:21:58.359Z,18.40
2022-08-11T15:24:27.981Z,18.89
2022-08-11T15:27:13.005Z,18.64
2022-08-11T15:29:54.965Z,18.30
2022-08-11T15:32:45.330Z,18.75
2022-08-11T15:35:27.280Z,17.97
2022-08-11T15:38:08.366Z,18.30
2022-08-11T15:40:51.952Z,18.12
2022-08-11T15:43:37.004Z,18.16
2022-08-11T15:46:11.186Z,18.05
2022-08-11T15:48:46.305Z,18.27
2022-08-11T15:51:25.160Z,17.37
2022-08-11T15:53:57.031Z,17.60
2022-08-11T15:56:27.463Z,17.36
2022-08-11T15:59:10.542Z,16.97
2022-08-11T16:02:11.793Z,16.94
2022-08-11T16:04:48.553Z,16.85
2022-08-11T16:07:18.785Z,16.81
2022-08-11T16:09:55.000Z,16.62
2022-08-11T16:12:31.132Z,16.75
2022-08-11T16:15:20.291Z,17.05
2022-08-11T16:17:56.042Z,17.24
2022-08-11T16:20:30.137Z,16.50
2022-08-11T16:23:02.540Z,16.66
2022-08-11T16:27:01.681Z,16.54
2022-08-11T16:28:22.166Z,17.92
2022-08-11T16:30:51.667Z,17.95
2022-08-11T16:33:48.361Z,17.06
2022-08-11T16:36:25.909Z,17.16
2022-08-11T16:38:55.634Z,16.98
2022-08-11T16:41:40.784Z,17.07
2022-08-11T16:44:36.864Z,16.49
2022-08-11T16:47:07.467Z,16.52
2022-08-11T16:49:37.832Z,17.29
2022-08-11T16:52:12.213Z,18.13
2022-08-11T16:54:44.573Z,17.33
2022-08-11T16:57:29.704Z,17.45
2022-08-11T16:59:59.565Z,17.46
2022-08-11T17:02:43.899Z,17.39
2022-08-11T17:05:26.788Z,17.72
2022-08-11T17:08:11.616Z,17.80
2022-08-11T17:10:57.754Z,17.45
2022-08-11T17:13:34.399Z,17.49
2022-08-11T17:16:12.819Z,17.61
2022-08-11T17:18:47.148Z,18.16
2022-08-11T17:21:21.861Z,17.90
2022-08-11T17:23:55.103Z,18.54
2022-08-11T17:26:27.338Z,18.48
2022-08-11T17:28:59.850Z,18.41
2022-08-11T17:31:41.797Z,18.46
2022-08-11T17:34:23.779Z,18.36
2022-08-11T17:36:53.354Z,18.57
2022-08-11T17:39:29.226Z,18.96
2022-08-11T17:42:11.361Z,19.16
2022-08-11T17:44:53.406Z,18.96
2022-08-11T17:47:35.424Z,18.53
2022-08-11T17:50:14.667Z,18.49
2022-08-11T17:52:59.499Z,18.90
2022-08-11T17:55:51.734Z,18.48
2022-08-11T17:58:35.298Z,18.83
2022-08-11T18:01:08.831Z,18.84
2022-08-11T18:03:39.577Z,18.83
2022-08-11T18:06:12.943Z,19.93
2022-08-11T18:08:59.065Z,19.14
2022-08-11T18:12:10.544Z,19.47
2022-08-11T18:14:46.251Z,19.17
2022-08-11T18:17:28.208Z,19.33
2022-08-11T18:20:10.163Z,19.39
2022-08-11T18:22:53.599Z,19.64
2022-08-11T18:25:43.268Z,19.76
2022-08-11T18:28:30.939Z,19.59
2022-08-11T18:31:15.002Z,19.59
2022-08-11T18:34:07.844Z,19.68
2022-08-11T18:36:51.854Z,19.88
2022-08-11T18:39:33.869Z,20.17
2022-08-11T18:42:19.554Z,19.90
2022-08-11T18:45:15.476Z,20.26
2022-08-11T18:47:57.456Z,20.14
2022-08-11T18:50:40.179Z,20.20
2022-08-11T18:53:25.981Z,20.00
2022-08-11T18:56:07.929Z,20.01
2022-08-11T18:58:49.956Z,20.73
2022-08-11T19:01:34.508Z,22.11
2022-08-11T19:04:19.182Z,22.72
2022-08-11T19:07:01.488Z,22.12
2022-08-11T19:09:43.530Z,22.16
2022-08-11T19:12:25.503Z,22.37
2022-08-11T19:15:07.602Z,22.12
2022-08-11T19:17:54.132Z,22.13
2022-08-11T19:20:37.682Z,21.90
2022-08-11T19:23:20.767Z,21.81
2022-08-11T19:26:02.721Z,22.23
2022-08-11T19:28:44.759Z,21.88
2022-08-11T19:31:26.731Z,21.96
2022-08-11T19:34:11.317Z,22.27
2022-08-11T19:36:53.272Z,22.62
2022-08-11T19:39:35.532Z,22.50
2022-08-11T19:42:17.540Z,22.66
2022-08-11T19:44:59.492Z,22.58
2022-08-11T19:47:41.444Z,22.38
2022-08-11T19:50:26.205Z,22.71
2022-08-11T19:53:17.195Z,22.80
2022-08-11T19:56:00.173Z,22.46
2022-08-11T19:58:42.148Z,22.35
2022-08-11T20:01:24.146Z,22.72
2022-08-11T20:04:06.122Z,22.64
2022-08-11T20:06:51.090Z,22.38
2022-08-11T20:10:04.931Z,22.87
2022-08-11T20:12:35.018Z,22.91
2022-08-11T20:15:17.048Z,22.70
2022-08-11T20:17:59.094Z,22.83
2022-08-11T20:20:41.397Z,22.85
2022-08-11T20:23:25.960Z,23.29
2022-08-11T20:26:29.788Z,23.20
2022-08-11T20:29:10.083Z,22.98
2022-08-11T20:31:52.041Z,23.42
2022-08-11T20:34:33.998Z,23.18
2022-08-11T20:37:15.965Z,23.45
2022-08-11T20:40:00.494Z,23.46
2022-08-11T20:42:42.674Z,23.88
2022-08-11T20:45:25.160Z,23.56
2022-08-11T20:48:07.625Z,23.48
2022-08-11T20:50:50.241Z,23.56
2022-08-11T20:53:35.971Z,23.34
2022-08-11T20:56:28.969Z,23.13
2022-08-11T20:59:17.386Z,23.42
2022-08-11T21:02:00.599Z,23.64
2022-08-11T21:04:54.502Z,23.34
2022-08-11T21:07:37.115Z,23.51
2022-08-11T21:10:23.308Z,23.52
2022-08-11T21:13:25.476Z,23.50
2022-08-11T21:16:09.286Z,23.58
2022-08-11T21:19:07.196Z,23.38
2022-08-11T21:21:50.169Z,23.60
2022-08-11T21:24:36.951Z,23.23
2022-08-11T21:27:24.748Z,23.80
2022-08-11T21:30:09.575Z,23.54
2022-08-11T21:32:51.528Z,23.54
2022-08-11T21:35:33.474Z,23.72
2022-08-11T21:38:17.287Z,23.90
2022-08-11T21:40:59.877Z,23.55
2022-08-11T21:43:41.860Z,23.67
2022-08-11T21:46:26.446Z,23.87
2022-08-11T21:49:13.790Z,24.04
2022-08-11T21:51:58.097Z,23.92
2022-08-11T21:54:40.311Z,24.27
2022-08-11T21:57:22.295Z,23.99
2022-08-11T22:00:06.690Z,24.16
2022-08-11T22:02:53.439Z,24.45
2022-08-11T22:05:35.825Z,24.21
2022-08-11T22:08:17.880Z,23.91
2022-08-11T22:10:59.821Z,24.18
2022-08-11T22:13:41.786Z,24.18
2022-08-11T22:16:43.737Z,24.25
2022-08-11T22:19:28.428Z,24.72
2022-08-11T22:22:10.385Z,24.42
2022-08-11T22:24:53.561Z,25.31
2022-08-11T22:27:35.537Z,26.02
2022-08-11T22:30:17.493Z,26.38
2022-08-11T22:32:59.496Z,26.76
2022-08-11T22:35:44.508Z,26.66
2022-08-11T22:38:26.448Z,27.09
2022-08-11T22:41:08.400Z,27.11
2022-08-11T22:43:50.390Z,26.34
2022-08-11T22:46:32.348Z,26.26
2022-08-11T22:49:14.316Z,26.46
2022-08-11T22:51:58.849Z,26.79
2022-08-11T22:54:40.790Z,26.79
2022-08-11T22:57:22.748Z,26.67
2022-08-11T23:00:04.689Z,27.21
2022-08-11T23:02:46.708Z,27.42
2022-08-11T23:05:29.356Z,27.30
2022-08-11T23:08:13.950Z,27.42
2022-08-11T23:10:55.899Z,27.80
2022-08-11T23:13:37.876Z,27.62
2022-08-11T23:16:20.142Z,27.16
2022-08-11T23:19:02.135Z,27.35
2022-08-11T23:21:44.419Z,27.50
2022-08-11T23:24:28.989Z,27.96
2022-08-11T23:27:11.089Z,28.02
2022-08-11T23:29:53.036Z,28.30
2022-08-11T23:32:35.646Z,28.63
2022-08-11T23:35:40.062Z,28.36
2022-08-11T23:38:19.567Z,28.23
2022-08-11T23:41:04.114Z,28.68
2022-08-11T23:43:46.111Z,28.95
2022-08-11T23:46:28.050Z,29.08
2022-08-11T23:49:12.140Z,28.71
2022-08-11T23:51:54.536Z,29.02
2022-08-11T23:54:37.575Z,29.21
2022-08-11T23:57:22.427Z,29.00
